Time,TemperatureF,DewpointF,PressureIn,WindDirection,WindDirectionDegrees,WindSpeedMPH,WindSpeedGustMPH,Humidity,HourlyPrecipIn,Conditions,Clouds,dailyrainin,SoftwareType,DateUTC
2013-03-30 07:12:00,51.5,47.9,30.01,NNW,334,2.9,2.9,87,0.00,n/a,n/a,-99.99,Henriksen +1-Wire,2013-03-30 11:12:00,
2013-03-30 07:17:00,46.7,43.1,30.01,NNW,348,2.4,4.0,87,0.00,n/a,n/a,-99.99,Henriksen +1-Wire,2013-03-30 11:17:00,
2013-03-30 07:22:00,43.3,39.4,30.01,NNW,346,1.8,4.0,85,0.00,n/a,n/a,-99.99,Henriksen +1-Wire,2013-03-30 11:22:00,
2013-03-30 09:27:00,46.9,32.8,30.03,NNE,26,3.1,5.8,57,0.00,n/a,n/a,-99.99,Henriksen +1-Wire,2013-03-30 13:27:00,
2013-03-30 11:32:00,51.1,31.7,30.02,NW,313,2.5,4.8,47,0.00,n/a,n/a,-99.99,Henriksen +1-Wire,2013-03-30 15:32:00,
2013-03-30 11:37:00,51.2,31.9,30.02,NW,308,2.8,5.0,47,0.00,n/a,n/a,-99.99,Henriksen +1-Wire,2013-03-30 15:37:00,
2013-03-30 13:42:00,49.3,39.6,30.00,South,182,4.9,10.3,68,0.00,n/a,n/a,-99.99,Henriksen +1-Wire,2013-03-30 17:42:00,
2013-03-30 13:44:00,49.4,39.5,30.00,South,188,4.7,10.3,68,0.00,n/a,n/a,-99.99,Henriksen +1-Wire,2013-03-30 17:44:00,
2013-03-30 13:49:00,49.6,39.3,30.00,SSW,194,5.8,8.7,67,0.00,n/a,n/a,-99.99,Henriksen +1-Wire,2013-03-30 17:49:00,
2013-03-30 13:55:00,49.5,38.9,30.00,South,189,3.6,9.5,66,0.00,n/a,n/a,-99.99,Henriksen +1-Wire,2013-03-30 17:55:00,
2013-03-30 14:00:00,49.6,39.0,30.00,South,189,3.2,9.5,66,0.00,n/a,n/a,-99.99,Henriksen +1-Wire,2013-03-30 18:00:00,
2013-03-30 14:05:00,49.7,39.1,29.99,SSW,203,5.5,8.7,66,0.00,n/a,n/a,-99.99,Henriksen +1-Wire,2013-03-30 18:05:00,
2013-03-30 14:10:00,49.2,37.9,29.99,SSW,201,5.0,9.3,64,0.00,n/a,n/a,-99.99,Henriksen +1-Wire,2013-03-30 18:10:00,
2013-03-30 14:15:00,49.3,37.4,29.99,SSW,201,5.4,12.6,63,0.00,n/a,n/a,-99.99,Henriksen +1-Wire,2013-03-30 18:15:00,
2013-03-30 14:20:00,49.3,37.0,29.99,SSW,196,7.3,12.6,62,0.00,n/a,n/a,-99.99,Henriksen +1-Wire,2013-03-30 18:20:00,
2013-03-30 14:26:00,48.6,36.3,29.99,SSW,198,4.4,10.3,62,0.00,n/a,n/a,-99.99,Henriksen +1-Wire,2013-03-30 18:26:00,
2013-03-30 16:27:00,47.3,37.6,29.98,South,184,5.2,10.3,68,0.00,n/a,n/a,-99.99,Henriksen +1-Wire,2013-03-30 20:27:00,
2013-03-30 16:32:00,47.2,37.4,29.98,South,183,3.7,9.2,68,0.00,n/a,n/a,-99.99,Henriksen +1-Wire,2013-03-30 20:32:00,
2013-03-30 16:37:00,47.3,37.2,29.98,SSW,197,5.8,9.2,67,0.00,n/a,n/a,-99.99,Henriksen +1-Wire,2013-03-30 20:37:00,
2013-03-30 16:42:00,47.2,37.0,29.98,SW,215,3.7,9.2,67,0.00,n/a,n/a,-99.99,Henriksen +1-Wire,2013-03-30 20:42:00,
2013-03-30 16:47:00,47.1,36.8,29.98,SSW,193,3.7,7.9,67,0.00,n/a,n/a,-99.99,Henriksen +1-Wire,2013-03-30 20:47:00,
2013-03-30 18:52:00,44.7,34.5,30.01,SSW,211,1.8,5.6,67,0.00,n/a,n/a,-99.99,Henriksen +1-Wire,2013-03-30 22:52:00,
2013-03-30 18:57:00,44.7,34.3,30.01,South,178,1.5,5.6,66,0.00,n/a,n/a,-99.99,Henriksen +1-Wire,2013-03-30 22:57:00,
2013-03-30 21:02:00,38.3,35.7,30.05,NNE,22,0.0,0.0,90,0.00,n/a,n/a,-99.99,Henriksen +1-Wire,2013-03-31 01:02:00,
2013-03-30 23:07:00,35.0,32.8,30.06,NNE,14,1.4,2.4,91,0.00,n/a,n/a,-99.99,Henriksen +1-Wire,2013-03-31 03:07:00,
2013-03-30 23:12:00,35.1,33.2,30.06,NNE,13,1.4,2.4,92,0.00,n/a,n/a,-99.99,Henriksen +1-Wire,2013-03-31 03:12:00,